Time;durP1;ratioP1;P1;durP2;ratioP2;P2;SDS_P1;SDS_P2;PMS_P1;PMS_P2;Temp;Humidity;BMP_temperature;BMP_pressure;BME280_temperature;BME280_humidity;BME280_pressure;Samples;Min_cycle;Max_cycle;Signal;HPM_P1;HPM_P2
2021/01/11 00:01:44;;;;;;;10.73;6.97;;;;;;;-0.54;69.15;101016.06;1757374;79;21207;-90
2021/01/11 00:04:14;;;;;;;12.10;8.87;;;;;;;-0.56;69.20;101016.16;1745092;80;21287;-91
2021/01/11 00:06:44;;;;;;;11.63;8.73;;;;;;;-0.53;69.04;101011.17;1715748;81;21593;-90
2021/01/11 00:09:20;;;;;;;13.63;8.77;;;;;;;-0.57;69.08;101000.53;1716227;82;21197;-91
2021/01/11 00:11:56;;;;;;;12.90;7.40;;;;;;;-0.57;68.83;100982.20;1738121;81;21215;-91
2021/01/11 00:14:33;;;;;;;;;;;;;;;-0.69;69.01;100967.66;1745601;80;21715;-90
2021/01/11 00:17:39;;;;;;;;;;;;;;;;;;;;;
2021/01/11 00:31:05;;;;;;;10.37;7.03;;;;;;;-1.14;70.39;100989.30;1727692;79;22842;-92
2021/01/11 00:33:32;;;;;;;14.07;7.83;;;;;;;-1.20;70.53;101000.16;1726583;81;21586;-87
2021/01/11 00:36:32;;;;;;;14.03;8.13;;;;;;;-1.05;70.40;100999.20;1729548;79;22574;-93
2021/01/11 00:39:30;;;;;;;12.13;8.63;;;;;;;-1.03;70.41;101001.24;1692765;81;21462;31
2021/01/11 00:42:07;;;;;;;11.73;8.73;;;;;;;-0.93;70.16;101007.20;1506765;94;21189;-95
2021/01/11 00:44:35;;;;;;;8.80;5.60;;;;;;;-0.84;69.95;101014.00;1488969;94;21244;-94
2021/01/11 00:47:23;;;;;;;5.50;5.00;;;;;;;-0.80;69.57;101004.17;1488941;95;21350;-95
2021/01/11 00:50:05;;;;;;;5.90;5.30;;;;;;;-0.83;69.38;101001.30;1482234;95;21266;-94
2021/01/11 00:53:12;;;;;;;6.93;5.97;;;;;;;-0.93;69.47;100996.26;1472533;96;21252;-94
2021/01/11 01:05:17;;;;;;;6.80;5.50;;;;;;;-0.99;69.68;100997.97;1592565;87;21214;-92
2021/01/11 01:07:47;;;;;;;8.83;7.23;;;;;;;-1.00;69.71;101009.36;1588002;88;21240;-93
2021/01/11 01:21:19;;;;;;;9.23;5.67;;;;;;;-1.00;69.72;101017.20;1786545;78;23087;-90
2021/01/11 01:23:54;;;;;;;10.80;5.30;;;;;;;-1.05;69.83;101024.05;1789130;78;23012;-89
2021/01/11 01:26:21;;;;;;;6.50;5.17;;;;;;;-1.09;69.89;101023.87;1788774;80;21158;-92
2021/01/11 01:28:52;;;;;;;7.83;6.13;;;;;;;-1.09;69.90;101025.19;1796827;78;22435;-89
2021/01/11 01:31:20;;;;;;;7.77;5.63;;;;;;;-1.04;69.75;101015.25;1767565;80;22340;-91
2021/01/11 01:33:48;;;;;;;6.57;5.00;;;;;;;-1.04;69.72;101019.17;1793722;78;21890;-90
2021/01/11 01:36:21;;;;;;;8.03;4.77;;;;;;;-1.00;69.70;101015.45;1750303;80;21550;-88
2021/01/11 01:38:48;;;;;;;10.50;8.47;;;;;;;-1.02;69.63;101022.56;1720592;82;21199;-89
2021/01/11 01:41:15;;;;;;;10.53;7.97;;;;;;;-0.97;69.58;101021.42;1732146;82;21210;-88
2021/01/11 01:43:42;;;;;;;11.63;9.47;;;;;;;-0.97;69.66;101022.73;1729823;82;21313;-90
2021/01/11 01:46:21;;;;;;;11.17;7.70;;;;;;;-0.94;69.60;101023.83;1722722;81;21290;-90
2021/01/11 01:49:03;;;;;;;10.30;7.33;;;;;;;-0.94;69.73;101029.06;1720472;82;21179;-94
2021/01/11 01:51:59;;;;;;;16.60;10.00;;;;;;;-0.92;69.74;101025.88;1718435;82;21171;-92
2021/01/11 01:55:24;;;;;;;;;;;;;;;-0.90;69.71;101030.09;1726655;80;21076;-92
2021/01/11 01:58:09;;;;;;;18.13;12.47;;;;;;;-0.97;69.72;101024.88;1710084;81;20205;-91
2021/01/11 02:00:40;;;;;;;23.57;14.97;;;;;;;-1.02;69.90;101034.34;1692954;83;21266;-90
2021/01/11 02:03:09;;;;;;;20.67;14.23;;;;;;;-1.05;70.18;101040.23;1699958;84;21205;-90
2021/01/11 02:05:38;;;;;;;18.73;13.43;;;;;;;-0.98;70.17;101036.27;1710481;82;21056;-92
2021/01/11 02:08:28;;;;;;;20.57;14.20;;;;;;;-1.37;70.20;100974.59;1715460;82;21187;-91
2021/01/11 02:11:32;;;;;;;25.27;16.53;;;;;;;-0.88;70.08;101044.41;1713103;82;21306;-90
2021/01/11 02:14:41;;;;;;;18.17;13.60;;;;;;;-0.87;70.14;101042.14;1699533;81;21197;-94
2021/01/11 02:18:03;;;;;;;24.33;14.07;;;;;;;-0.88;70.11;101041.78;1655661;85;21160;-96
2021/01/11 02:21:38;;;;;;;20.70;11.93;;;;;;;-0.91;70.30;101040.66;1654385;81;21190;-95
2021/01/11 02:24:59;;;;;;;18.87;10.60;;;;;;;-0.86;70.20;101038.59;1649246;85;21761;-90
2021/01/11 02:27:58;;;;;;;;;;;;;;;;;;;;;
2021/01/11 02:30:38;;;;;;;15.20;10.30;;;;;;;-0.79;69.64;101030.73;1780555;78;23076;-91
2021/01/11 02:46:49;;;;;;;19.23;13.13;;;;;;;-0.74;70.31;101022.09;1836828;77;24709;-90
2021/01/11 02:49:28;;;;;;;25.57;17.70;;;;;;;-0.81;70.51;101026.90;1821044;77;21173;-88
2021/01/11 02:53:06;;;;;;;30.03;18.00;;;;;;;-0.68;70.20;101015.17;1812961;77;22258;-89
2021/01/11 02:55:49;;;;;;;34.93;21.27;;;;;;;-0.67;70.07;101011.60;1743276;79;21259;-91
2021/01/11 02:58:52;;;;;;;24.63;17.13;;;;;;;-0.61;69.90;100999.41;1735410;81;21207;-93
2021/01/11 03:01:22;;;;;;;27.63;17.33;;;;;;;-0.59;69.73;100992.30;1745144;81;21188;-89
2021/01/11 03:04:00;;;;;;;24.50;16.45;;;;;;;-0.58;69.40;100989.23;1760640;81;21292;-91
2021/01/11 03:06:35;;;;;;;20.90;14.13;;;;;;;-0.93;69.39;100920.84;1692958;83;21208;-91
2021/01/11 03:09:13;;;;;;;18.47;12.80;;;;;;;-0.56;69.27;100977.34;1714271;82;21203;-92
2021/01/11 03:11:41;;;;;;;18.30;12.90;;;;;;;-0.56;69.09;100980.80;1724861;81;21194;-91
2021/01/11 03:14:09;;;;;;;16.43;11.63;;;;;;;-0.59;69.00;100981.82;1702161;81;21211;-90
2021/01/11 03:16:38;;;;;;;16.00;12.83;;;;;;;-0.63;68.80;100979.04;1694238;83;21166;-91
2021/01/11 03:19:11;;;;;;;17.10;11.67;;;;;;;-0.66;68.58;100972.71;1699229;83;21199;-91
2021/01/11 03:25:21;;;;;;;9.47;6.03;;;;;;;-0.50;67.94;100994.80;1724157;77;21284;-94
2021/01/11 03:32:12;;;;;;;7.60;5.53;;;;;;;-0.51;67.40;100998.37;1760891;79;21189;-93
2021/01/11 03:35:15;;;;;;;7.70;5.60;;;;;;;-0.45;67.01;101002.36;1766555;80;21135;-94
2021/01/11 03:37:54;;;;;;;6.45;5.35;;;;;;;-0.38;66.79;101004.92;1783140;78;21144;-95
2021/01/11 03:40:26;;;;;;;10.00;6.60;;;;;;;-0.39;66.77;101013.74;1783777;78;21205;-93
2021/01/11 03:42:59;;;;;;;10.37;6.87;;;;;;;-0.37;66.86;101010.55;1765212;78;21165;-91
2021/01/11 03:45:28;;;;;;;11.13;8.50;;;;;;;-0.37;67.11;101004.48;1766605;78;21661;-93
2021/01/11 03:48:02;;;;;;;11.03;7.87;;;;;;;-0.37;67.38;101004.48;1749588;78;21271;-90
2021/01/11 03:51:13;;;;;;;12.30;8.15;;;;;;;-0.39;67.59;101012.43;1750743;78;21159;-95
2021/01/11 03:54:15;;;;;;;11.87;9.03;;;;;;;-0.34;67.55;101017.35;1648838;84;21683;-91
2021/01/11 03:56:44;;;;;;;13.57;9.53;;;;;;;-0.36;67.39;101016.62;1693587;82;21304;-90
2021/01/11 03:59:13;;;;;;;13.30;10.27;;;;;;;-0.37;67.59;101021.50;1688972;83;21261;-91
2021/01/11 04:01:51;;;;;;;13.03;9.37;;;;;;;-0.34;67.56;101019.52;1668774;83;21143;-88
2021/01/11 04:04:23;;;;;;;14.37;9.93;;;;;;;-0.31;67.59;101021.09;1688582;81;21277;-90
2021/01/11 04:07:18;;;;;;;16.07;9.20;;;;;;;-0.26;67.49;101025.09;1722998;78;22903;-90
2021/01/11 04:09:47;;;;;;;11.43;8.90;;;;;;;-0.30;67.44;101032.78;1721044;78;21120;-92
2021/01/11 04:12:15;;;;;;;13.03;9.77;;;;;;;-0.23;67.12;101033.20;1682427;81;21210;-90
2021/01/11 04:14:45;;;;;;;12.70;9.17;;;;;;;-0.23;67.05;101034.06;1682688;83;21190;-87
2021/01/11 04:17:16;;;;;;;11.37;8.10;;;;;;;-0.16;66.89;101029.23;1682045;83;21214;-86
2021/01/11 04:19:44;;;;;;;14.30;10.17;;;;;;;-0.16;66.98;101032.34;1683391;83;21388;-88
2021/01/11 04:22:15;;;;;;;15.57;11.50;;;;;;;-0.14;66.48;101034.38;1680594;83;21805;-87
2021/01/11 04:24:45;;;;;;;18.53;12.57;;;;;;;-0.23;66.54;101034.06;1635635;86;21559;-87
2021/01/11 04:27:15;;;;;;;29.10;21.30;;;;;;;-0.20;66.62;101035.16;1609886;88;21667;-87
2021/01/11 04:29:42;;;;;;;33.47;22.90;;;;;;;-0.21;66.44;101043.11;1636689;85;21256;-92
2021/01/11 04:32:09;;;;;;;32.80;22.17;;;;;;;-0.21;66.40;101042.66;1659796;84;21194;-90
2021/01/11 04:34:38;;;;;;;31.67;19.67;;;;;;;-1.28;66.56;100872.48;1663141;83;21157;-89
2021/01/11 04:37:14;;;;;;;30.90;20.77;;;;;;;-0.17;66.61;101039.81;1664172;80;21129;-89
2021/01/11 04:39:44;;;;;;;34.20;20.62;;;;;;;-0.20;66.70;101036.94;1658211;84;21215;-89
2021/01/11 04:42:31;;;;;;;28.23;19.47;;;;;;;-0.16;66.64;101041.03;1669761;85;21157;-91
2021/01/11 04:45:01;;;;;;;24.60;16.93;;;;;;;-0.17;66.88;101037.20;1659415;84;21185;-91
2021/01/11 04:47:29;;;;;;;29.40;17.53;;;;;;;-0.12;66.88;101029.40;1638568;85;21597;-89
2021/01/11 04:49:57;;;;;;;28.10;17.30;;;;;;;-0.12;66.81;101028.09;1658366;84;21217;-90
2021/01/11 04:52:29;;;;;;;25.87;16.33;;;;;;;-0.10;66.86;101034.55;1636410;86;21207;-89
2021/01/11 04:54:56;;;;;;;24.37;15.13;;;;;;;-0.11;66.78;101035.02;1652799;86;21936;-89
2021/01/11 04:57:23;;;;;;;18.70;12.47;;;;;;;-0.10;66.72;101036.69;1653311;85;21425;-87
2021/01/11 04:59:54;;;;;;;14.27;10.47;;;;;;;-0.11;66.40;101035.50;1644509;85;21776;-90
2021/01/11 05:02:23;;;;;;;18.00;12.60;;;;;;;-0.09;66.00;101037.06;1603008;86;21218;-89
2021/01/11 05:04:51;;;;;;;15.37;10.67;;;;;;;-0.11;66.06;101037.64;1662436;85;22439;-88
2021/01/11 05:07:21;;;;;;;20.57;13.13;;;;;;;-0.15;65.97;101032.69;1665601;84;21174;-87
2021/01/11 05:09:49;;;;;;;20.33;12.63;;;;;;;-0.18;66.17;101030.30;1660469;85;21381;-88
2021/01/11 05:12:16;;;;;;;19.57;12.00;;;;;;;-0.20;66.02;101028.60;1659049;85;21291;-89
2021/01/11 05:14:44;;;;;;;17.13;10.83;;;;;;;-0.22;65.96;101027.87;1661648;86;21211;-88
2021/01/11 05:17:12;;;;;;;17.57;11.50;;;;;;;-0.25;65.95;101025.44;1657456;85;21203;-90
2021/01/11 05:19:39;;;;;;;17.77;10.97;;;;;;;-0.29;66.12;101030.52;1624589;86;21208;-88
2021/01/11 05:22:09;;;;;;;18.07;12.63;;;;;;;-0.31;66.21;101038.13;1672110;84;21244;-87
2021/01/11 05:24:39;;;;;;;20.27;12.83;;;;;;;-0.31;66.24;101037.64;1637130;84;21120;-87
2021/01/11 05:27:08;;;;;;;20.57;15.10;;;;;;;-0.32;66.37;101041.66;1669649;84;21305;-89
2021/01/11 05:29:38;;;;;;;19.80;13.10;;;;;;;-0.25;66.25;101031.98;1647406;86;21278;-87
2021/01/11 05:32:08;;;;;;;13.77;11.47;;;;;;;-0.24;66.25;101040.23;1672485;85;21361;-87
2021/01/11 05:34:47;;;;;;;19.70;12.40;;;;;;;-0.18;66.28;101038.16;1662942;84;21207;-88
2021/01/11 05:37:39;;;;;;;19.60;13.83;;;;;;;-0.20;66.18;101049.56;1678620;82;21796;-89
2021/01/11 05:40:12;;;;;;;18.93;13.67;;;;;;;-0.13;65.94;101046.53;1687868;84;21187;-89
2021/01/11 05:42:40;;;;;;;20.13;14.33;;;;;;;-0.14;65.71;101054.88;1674427;84;21157;-88
2021/01/11 05:45:21;;;;;;;22.43;14.80;;;;;;;-0.11;65.48;101044.67;1684674;84;21303;-87
2021/01/11 05:48:08;;;;;;;20.50;15.00;;;;;;;-0.13;65.64;101043.91;1674897;84;21161;-89
2021/01/11 05:50:47;;;;;;;20.23;13.30;;;;;;;-0.11;65.59;101041.58;1692482;83;21212;-88
2021/01/11 05:53:25;;;;;;;19.50;12.20;;;;;;;-0.09;65.63;101044.09;1683090;83;21196;-88
2021/01/11 05:55:57;;;;;;;20.43;13.27;;;;;;;-0.06;65.53;101046.05;1685409;84;21379;-90
2021/01/11 05:58:26;;;;;;;18.13;11.43;;;;;;;-0.03;65.48;101047.13;1693255;83;21156;-90
2021/01/11 06:00:55;;;;;;;19.80;13.00;;;;;;;-0.02;65.30;101045.34;1659343;85;21230;-86
2021/01/11 06:03:23;;;;;;;17.83;12.23;;;;;;;-0.03;65.30;101048.45;1666873;84;21219;-87
2021/01/11 06:05:52;;;;;;;21.07;11.93;;;;;;;-0.07;65.32;101050.08;1679296;84;21575;-88
2021/01/11 06:08:19;;;;;;;16.90;10.47;;;;;;;-0.10;65.05;101050.27;1658942;84;21203;-92
2021/01/11 06:10:50;;;;;;;14.73;11.77;;;;;;;-0.12;65.18;101061.33;1645112;84;21185;-91
2021/01/11 06:13:19;;;;;;;19.47;12.73;;;;;;;-0.11;65.58;101063.84;1677063;83;21288;-92
2021/01/11 06:15:46;;;;;;;17.83;12.27;;;;;;;-0.16;65.56;101067.23;1653512;85;21279;-92
2021/01/11 06:18:26;;;;;;;18.57;12.83;;;;;;;-0.11;65.42;101060.40;1661424;83;21341;-94
2021/01/11 06:21:16;;;;;;;17.47;11.43;;;;;;;-0.11;65.48;101073.50;1612715;87;21255;-95
2021/01/11 06:27:57;;;;;;;14.50;8.73;;;;;;;-0.04;65.38;101072.99;1691553;80;21121;-95
2021/01/11 06:48:34;;;;;;;17.83;10.27;;;;;;;-0.40;64.84;101071.84;1597238;86;21287;-92
2021/01/11 06:51:45;;;;;;;16.70;9.23;;;;;;;-0.64;64.92;101019.27;1588563;82;21262;-91
2021/01/11 06:54:14;;;;;;;13.87;9.53;;;;;;;-0.53;63.15;101036.05;1529321;91;21275;-88
2021/01/11 06:56:45;;;;;;;15.67;8.33;;;;;;;-0.36;62.53;101067.70;1554812;90;21377;-86
2021/01/11 06:59:16;;;;;;;10.63;7.40;;;;;;;-0.37;62.37;101059.01;1602545;88;21375;-86
2021/01/11 07:01:49;;;;;;;15.00;9.13;;;;;;;-0.40;61.45;101060.50;1597802;88;21529;-93
2021/01/11 07:04:52;;;;;;;;;;;;;;;;;;;;;
2021/01/11 07:07:34;;;;;;;8.60;5.43;;;;;;;-0.46;59.45;101052.58;1772531;78;23431;-93
2021/01/11 07:10:27;;;;;;;10.27;5.23;;;;;;;-0.49;59.76;101053.24;1705059;81;21562;-91
2021/01/11 07:13:21;;;;;;;11.77;6.57;;;;;;;-0.55;59.17;101068.88;1761366;80;21248;-88
2021/01/11 07:15:59;;;;;;;12.07;7.43;;;;;;;-0.58;59.56;101059.93;1762430;80;21592;-95
2021/01/11 07:18:45;;;;;;;15.47;8.20;;;;;;;-0.53;60.20;101060.45;1743661;81;21673;-94
2021/01/11 07:22:39;;;;;;;17.10;9.63;;;;;;;-0.46;60.38;101063.05;1764281;80;21226;-93
2021/01/11 07:35:56;;;;;;;19.70;10.90;;;;;;;-0.33;61.02;101057.86;1709120;80;22228;-95
2021/01/11 07:39:16;;;;;;;22.43;12.20;;;;;;;-0.26;60.84;101056.52;1669414;83;21763;-94
2021/01/11 07:42:22;;;;;;;22.37;11.83;;;;;;;-0.15;60.76;101067.62;1701115;83;21105;-94
2021/01/11 07:45:11;;;;;;;25.95;13.22;;;;;;;-0.10;60.62;101061.58;1703436;82;21216;-95
2021/01/11 07:48:37;;;;;;;24.97;13.37;;;;;;;0.00;60.59;101068.39;1704245;83;21185;-96
2021/01/11 07:51:50;;;;;;;22.40;12.00;;;;;;;0.09;60.34;101066.44;1681857;83;21263;-95
2021/01/11 07:54:59;;;;;;;;;;;;;;;;;;;;;
2021/01/11 07:58:14;;;;;;;22.63;11.37;;;;;;;0.16;59.70;101076.89;1686869;83;21312;-95
2021/01/11 08:01:26;;;;;;;22.77;12.67;;;;;;;-0.53;59.69;100958.32;1692242;84;21177;-94
2021/01/11 08:04:47;;;;;;;20.82;13.18;;;;;;;0.27;59.66;101077.97;1720039;83;22262;-96
2021/01/11 08:08:11;;;;;;;21.00;13.70;;;;;;;0.31;59.73;101085.51;1481597;89;21296;-95
2021/01/11 08:21:24;;;;;;;22.60;13.50;;;;;;;0.21;60.40;101084.46;1681090;82;21152;-91
2021/01/11 08:24:52;;;;;;;22.50;14.37;;;;;;;0.24;60.22;101096.03;1722856;80;21187;-94
2021/01/11 08:47:47;;;;;;;24.23;15.67;;;;;;;0.13;59.75;101098.09;1641487;83;21150;-91
2021/01/11 08:54:37;;;;;;;24.13;15.27;;;;;;;0.06;59.11;101104.67;1557149;89;21345;-94
2021/01/11 09:15:58;;;;;;;28.73;19.43;;;;;;;0.06;59.18;101082.39;1709160;76;21362;-93
2021/01/11 09:19:16;;;;;;;33.47;21.77;;;;;;;0.12;59.42;101086.39;1720426;81;21303;-93
2021/01/11 09:22:36;;;;;;;32.03;22.07;;;;;;;0.14;59.21;101085.33;1702317;82;21222;-92
2021/01/11 09:25:49;;;;;;;32.10;20.93;;;;;;;0.14;59.01;101085.81;1726432;81;21176;-91
2021/01/11 09:29:02;;;;;;;30.17;18.53;;;;;;;0.05;59.43;101074.63;1730993;81;21521;-95
2021/01/11 09:32:19;;;;;;;38.13;23.03;;;;;;;-0.03;59.45;101081.20;1731984;82;21152;-94
2021/01/11 09:35:27;;;;;;;42.33;23.53;;;;;;;-0.02;59.65;101075.03;1719786;81;21649;-91
2021/01/11 09:38:09;;;;;;;39.60;22.27;;;;;;;0.14;59.40;101070.08;1786427;77;23619;-93
2021/01/11 09:41:20;;;;;;;40.23;23.03;;;;;;;0.10;59.55;101077.30;1741711;81;21136;-93
2021/01/11 09:44:30;;;;;;;34.43;21.47;;;;;;;0.10;59.72;101082.55;1731534;82;21390;-94
2021/01/11 09:47:36;;;;;;;32.00;18.27;;;;;;;0.18;59.83;101076.79;1685645;81;21162;-95
2021/01/11 09:50:50;;;;;;;36.33;20.10;;;;;;;0.23;59.66;101076.47;1723909;81;21196;-94
2021/01/11 09:53:46;;;;;;;51.27;21.80;;;;;;;0.27;59.37;101074.03;1738115;81;21162;-95
2021/01/11 09:57:01;;;;;;;35.97;20.63;;;;;;;0.25;59.49;101071.98;1713854;81;21172;-95
2021/01/11 10:00:11;;;;;;;37.40;21.48;;;;;;;-0.98;59.18;100867.48;1735325;80;21207;-94
2021/01/11 10:03:16;;;;;;;30.87;20.00;;;;;;;0.23;59.55;101062.05;1726071;80;21108;-93
2021/01/11 10:06:43;;;;;;;25.50;16.20;;;;;;;0.19;59.82;101060.95;1702804;79;21084;-90
2021/01/11 10:10:03;;;;;;;25.65;15.70;;;;;;;0.14;58.90;101065.66;1654877;84;21187;-95
2021/01/11 10:13:13;;;;;;;27.53;17.63;;;;;;;0.13;58.46;101053.52;1635011;86;21352;-93
2021/01/11 10:16:19;;;;;;;30.17;14.80;;;;;;;0.14;58.55;101060.42;1647691;86;21196;-95
2021/01/11 10:19:30;;;;;;;23.60;14.70;;;;;;;0.17;58.16;101058.91;1584652;88;21317;-92
2021/01/11 10:22:29;;;;;;;23.83;14.17;;;;;;;0.20;57.94;101049.99;1626436;86;21180;-91
2021/01/11 10:25:38;;;;;;;24.27;15.13;;;;;;;0.19;58.22;101053.09;1625134;87;21310;-92
2021/01/11 10:28:30;;;;;;;28.27;15.50;;;;;;;0.26;58.12;101057.91;1610011;87;21172;-93
2021/01/11 10:31:47;;;;;;;27.60;17.47;;;;;;;0.28;58.32;101058.17;1643582;84;21270;-90
2021/01/11 10:35:00;;;;;;;24.53;15.73;;;;;;;0.39;58.39;101050.89;1644716;86;21113;-92
2021/01/11 10:37:35;;;;;;;29.03;17.00;;;;;;;0.50;58.30;101037.88;1612763;88;21218;-92
2021/01/11 10:40:21;;;;;;;24.73;13.40;;;;;;;0.35;58.10;101009.61;1647202;86;21179;-92
2021/01/11 10:42:54;;;;;;;20.17;12.90;;;;;;;0.70;57.51;101046.17;1619184;87;21292;-94
2021/01/11 10:45:38;;;;;;;18.47;12.27;;;;;;;0.72;56.84;101039.85;1618149;87;21283;-93
2021/01/11 10:48:12;;;;;;;14.30;9.37;;;;;;;0.72;56.48;101037.23;1634416;86;21149;-91
2021/01/11 10:51:18;;;;;;;13.93;9.37;;;;;;;0.74;55.53;101035.81;1630173;87;21305;-91
2021/01/11 10:53:49;;;;;;;17.77;9.83;;;;;;;0.71;54.70;101036.02;1630630;87;21317;-90
2021/01/11 10:56:19;;;;;;;19.97;10.80;;;;;;;0.67;54.76;101026.21;1631637;87;21499;-92
2021/01/11 10:58:58;;;;;;;16.53;9.83;;;;;;;0.63;54.42;101026.55;1628772;82;21161;-92
2021/01/11 11:02:10;;;;;;;21.13;10.60;;;;;;;0.66;54.54;101014.50;1612311;85;21217;-93
2021/01/11 11:08:24;;;;;;;21.75;11.22;;;;;;;0.57;54.94;101022.56;1645333;86;21136;-94
2021/01/11 11:11:30;;;;;;;17.50;11.33;;;;;;;0.56;54.57;101023.02;1620175;87;21203;-94
2021/01/11 11:14:39;;;;;;;12.40;9.58;;;;;;;0.56;54.85;101019.08;1640329;86;21183;-92
2021/01/11 11:17:33;;;;;;;15.00;9.03;;;;;;;0.08;54.95;100949.44;1654917;86;21163;-94
2021/01/11 11:20:31;;;;;;;15.47;9.90;;;;;;;0.60;54.79;101016.25;1620468;87;21254;-92
2021/01/11 11:23:44;;;;;;;17.33;11.57;;;;;;;0.62;54.90;101013.05;1606091;84;21157;-91
2021/01/11 11:26:47;;;;;;;19.93;10.50;;;;;;;0.54;55.17;101016.20;1633770;85;21164;-92
2021/01/11 11:29:59;;;;;;;23.57;12.18;;;;;;;0.52;55.36;101003.19;1611923;87;21210;-93
2021/01/11 11:33:12;;;;;;;19.17;10.67;;;;;;;0.49;55.64;101002.11;1646430;86;21350;-93
2021/01/11 11:36:23;;;;;;;18.03;12.33;;;;;;;0.48;56.23;101016.16;1646974;85;21167;-93
2021/01/11 11:39:15;;;;;;;24.13;14.03;;;;;;;0.49;56.39;101016.55;1617461;86;21130;-95
2021/01/11 11:42:19;;;;;;;;;;;;;;;0.50;56.56;101016.89;1601076;89;21268;-93
2021/01/11 11:45:14;;;;;;;25.27;13.90;;;;;;;0.49;56.61;101009.13;1603789;88;20215;-88
2021/01/11 11:47:44;;;;;;;19.63;12.40;;;;;;;0.47;56.99;101008.39;1654276;87;21171;-94
2021/01/11 11:51:05;;;;;;;22.13;13.33;;;;;;;0.48;57.21;101011.39;1639804;84;21290;-94
2021/01/11 11:54:23;;;;;;;29.40;17.47;;;;;;;0.49;57.56;101012.61;1639586;87;21335;-93
2021/01/11 11:57:16;;;;;;;32.00;16.87;;;;;;;0.49;58.44;101013.92;1655283;83;21282;-93
2021/01/11 12:00:39;;;;;;;30.87;16.97;;;;;;;0.51;58.71;101009.85;1630153;84;21150;-94
2021/01/11 12:15:31;;;;;;;36.43;23.53;;;;;;;2.17;56.77;101002.17;1823791;76;23123;-89
2021/01/11 12:18:04;;;;;;;37.03;24.63;;;;;;;2.18;56.48;101009.95;1763023;80;21155;-92
2021/01/11 12:21:18;;;;;;;38.50;26.10;;;;;;;1.96;57.28;101005.50;1809963;77;23003;-89
2021/01/11 12:24:29;;;;;;;33.33;23.87;;;;;;;1.66;58.14;101004.22;1740440;80;21306;-91
2021/01/11 12:27:36;;;;;;;38.07;26.00;;;;;;;1.42;58.95;101016.06;1761999;80;21205;-93
2021/01/11 12:30:31;;;;;;;40.27;25.23;;;;;;;1.27;59.92;101007.51;1733931;81;21145;-91
2021/01/11 12:32:58;;;;;;;42.73;25.43;;;;;;;1.12;60.96;101009.94;1760713;81;21188;-91
2021/01/11 12:35:28;;;;;;;36.67;24.77;;;;;;;0.98;61.75;101013.56;1725562;81;21331;-92
2021/01/11 12:37:57;;;;;;;38.07;25.63;;;;;;;0.84;62.30;101013.70;1663238;85;21215;-90
2021/01/11 12:40:31;;;;;;;49.43;28.57;;;;;;;0.77;62.64;101013.27;1658889;85;21169;-90
2021/01/11 12:43:04;;;;;;;45.80;27.33;;;;;;;0.70;63.00;101025.17;1659520;85;21197;-89
2021/01/11 12:46:00;;;;;;;40.27;29.20;;;;;;;0.66;63.53;101019.75;1636794;84;21174;-92
2021/01/11 12:48:39;;;;;;;43.93;27.47;;;;;;;0.61;63.92;101017.95;1650320;85;21353;-89
2021/01/11 12:51:22;;;;;;;51.53;28.97;;;;;;;0.60;64.28;101021.02;1614131;86;21190;-90
2021/01/11 12:53:56;;;;;;;52.83;32.20;;;;;;;0.58;64.48;101009.34;1622190;87;21147;-93
2021/01/11 19:36:01;;;;;;;46.30;30.07;;;;;;;0.62;68.08;101028.78;1650617;81;21069;31
2021/01/11 19:48:15;;;;;;;38.90;26.57;;;;;;;0.70;67.49;101025.17;1641581;81;21422;-93
2021/01/11 19:51:08;;;;;;;39.03;26.00;;;;;;;0.76;66.95;101031.30;1633541;81;21263;31
2021/01/11 19:57:28;;;;;;;36.87;25.90;;;;;;;0.86;65.59;101038.05;1674864;78;21325;-93
2021/01/11 20:00:23;;;;;;;35.48;22.62;;;;;;;0.87;65.44;101028.75;1696257;79;21575;-94
2021/01/11 20:03:38;;;;;;;29.47;21.70;;;;;;;0.92;64.30;101022.72;1685735;83;21144;-95
2021/01/11 20:06:54;;;;;;;40.53;26.73;;;;;;;0.96;63.80;101026.80;1690840;81;21180;-95
2021/01/11 20:16:35;;;;;;;32.20;22.47;;;;;;;0.99;64.42;101018.33;1643960;83;21216;-95
2021/01/11 20:19:41;;;;;;;33.80;22.13;;;;;;;1.02;63.92;101020.72;1634786;86;21279;-93
2021/01/11 20:23:17;;;;;;;28.63;21.00;;;;;;;1.10;63.35;101030.22;1629408;88;21197;-95
2021/01/11 20:26:43;;;;;;;34.50;20.77;;;;;;;1.08;62.91;101027.70;1613005;86;21630;-94
2021/01/11 20:30:03;;;;;;;30.83;21.30;;;;;;;1.15;62.65;101034.19;1619803;87;21264;-94
2021/01/11 20:37:22;;;;;;;;;;;;;;;;;;;;;
2021/01/11 20:40:40;;;;;;;34.30;25.00;;;;;;;1.14;62.02;101037.75;1660040;81;21156;-91
2021/01/11 20:43:34;;;;;;;35.90;25.77;;;;;;;0.84;61.60;100994.84;1649752;83;21083;-95
2021/01/11 20:46:57;;;;;;;35.50;23.93;;;;;;;1.03;62.09;101037.68;1661907;85;21174;-96
2021/01/11 20:50:23;;;;;;;36.77;25.23;;;;;;;1.07;62.20;101035.67;1657991;85;21710;-96
2021/01/11 20:56:52;;;;;;;36.13;23.43;;;;;;;1.15;62.24;101035.50;1666555;81;21255;-92
2021/01/11 20:59:50;;;;;;;33.73;21.63;;;;;;;1.22;61.93;101028.48;1660586;81;21162;-93
2021/01/11 21:02:32;;;;;;;35.93;25.70;;;;;;;1.22;61.84;101034.56;1648435;83;21182;-94
2021/01/11 21:05:43;;;;;;;34.03;23.20;;;;;;;1.28;61.45;101030.21;1662552;81;21043;-93
2021/01/11 21:08:41;;;;;;;33.37;23.30;;;;;;;1.21;60.90;101026.83;1655755;81;21161;-94
2021/01/11 21:12:01;;;;;;;25.95;18.00;;;;;;;1.17;60.79;101022.27;1636610;82;21141;-96
2021/01/11 21:15:00;;;;;;;24.77;17.43;;;;;;;1.11;60.68;101022.69;1629488;86;21330;-94
2021/01/11 21:18:17;;;;;;;20.50;14.80;;;;;;;1.13;60.34;101020.78;1618209;88;21125;-95
2021/01/11 21:20:55;;;;;;;24.30;16.60;;;;;;;1.11;58.75;101025.31;1631683;87;21426;-94
2021/01/11 21:23:35;;;;;;;22.03;14.63;;;;;;;1.04;59.18;101022.79;1632327;88;21217;-94
2021/01/11 21:26:43;;;;;;;20.80;15.90;;;;;;;1.07;59.39;101015.98;1629291;86;21161;-93
2021/01/11 21:29:38;;;;;;;21.10;15.90;;;;;;;1.09;59.18;101012.77;1616403;85;21130;-94
2021/01/11 21:33:03;;;;;;;16.27;11.70;;;;;;;1.13;58.06;101019.02;1639092;86;21141;-96
2021/01/11 21:36:34;;;;;;;17.93;12.40;;;;;;;1.11;57.55;101014.36;1632897;84;20999;-96
2021/01/11 21:39:36;;;;;;;17.33;11.67;;;;;;;1.16;57.46;101017.95;1663260;86;21173;-96
2021/01/11 21:42:34;;;;;;;15.27;11.03;;;;;;;1.18;57.22;101016.53;1649523;80;21282;-95
2021/01/11 21:45:45;;;;;;;14.20;11.10;;;;;;;1.18;57.14;101007.34;1666299;80;21145;-89
2021/01/11 21:49:03;;;;;;;14.73;10.57;;;;;;;1.22;56.93;101012.25;1657395;80;21138;-96
2021/01/11 21:52:41;;;;;;;12.50;9.40;;;;;;;1.21;56.75;101006.65;1643496;80;21162;-94
2021/01/11 21:56:17;;;;;;;13.97;9.90;;;;;;;1.22;56.62;101005.69;1654724;84;21161;-96
2021/01/11 22:03:28;;;;;;;16.97;12.20;;;;;;;1.26;56.19;101001.91;1664801;80;21129;-93
2021/01/11 22:06:28;;;;;;;16.73;12.13;;;;;;;1.26;56.51;101004.53;1582178;86;21160;-94
2021/01/11 22:19:14;;;;;;;19.30;12.27;;;;;;;1.24;57.00;100995.91;1697015;79;21192;-96
2021/01/11 22:25:45;;;;;;;16.03;12.10;;;;;;;1.30;57.12;100994.62;1631707;82;21168;-93
2021/01/11 22:36:04;;;;;;;;;;;;;;;;;;;;;
2021/01/11 22:39:09;;;;;;;17.20;13.10;;;;;;;1.16;57.15;100994.31;1533961;91;21543;-92
2021/01/11 22:41:43;;;;;;;18.60;13.23;;;;;;;1.19;57.05;100996.73;1547957;91;21248;-94
2021/01/11 22:44:19;;;;;;;16.07;11.53;;;;;;;1.21;56.77;100994.00;1519714;92;21244;-93
2021/01/11 22:46:59;;;;;;;17.93;12.50;;;;;;;1.22;56.83;100995.66;1561409;90;21243;-95
2021/01/11 22:50:11;;;;;;;20.50;14.40;;;;;;;1.20;56.96;100985.75;1528108;92;21260;-91
2021/01/11 22:53:12;;;;;;;19.27;13.60;;;;;;;1.21;56.73;100986.13;1564492;90;21232;-92
2021/01/11 22:56:20;;;;;;;18.57;13.53;;;;;;;1.22;56.92;100980.73;1757096;80;25487;-93
2021/01/11 22:58:54;;;;;;;19.87;13.93;;;;;;;1.16;57.27;100973.31;1734195;80;21176;-92
2021/01/11 23:01:43;;;;;;;17.83;13.03;;;;;;;1.23;57.24;100978.48;1746703;80;21291;-93
2021/01/11 23:04:13;;;;;;;20.43;14.93;;;;;;;1.21;57.15;100971.20;1748271;81;21141;-94
2021/01/11 23:07:12;;;;;;;19.93;14.13;;;;;;;1.21;57.21;100972.51;1681834;81;21070;-92
2021/01/11 23:10:32;;;;;;;21.37;14.17;;;;;;;1.21;57.38;100963.80;1680977;80;22041;-91
2021/01/11 23:13:16;;;;;;;21.93;14.97;;;;;;;1.25;57.50;100964.77;1681453;81;21185;-91
2021/01/11 23:16:16;;;;;;;23.67;15.13;;;;;;;1.26;57.58;100967.77;1694413;81;21485;-94